To NAV CANADA Home Page Login to a new session Search on AWWS site Disclaimer Vers la page française équivalente Tips FAQ What's new on the site To the Forecasts and Observations / NOTAM section To "File a Flight Plan" website Publications and other links Update of the User's profile FIC Telephone Numbers My Weather Data Folder Route Weather Data Regional Weather Data Local Weather Data To the Forecasts and Observations / NOTAM section
Request Generated 04/25/2019 at 08:06:28 UTC . Weather information available at that time is displayed.

METAR/TAF

ISLAND LAKE/MB    

LWIS CYIV 250700Z AUTO 32005KT 04/01 A2962=
LWIS CYIV 250600Z AUTO 29011KT 04/01 A2961=
LWIS CYIV 250500Z AUTO 29011KT 05/01 A2960=

TAF CYIV 250638Z 2507/2519 FCST NOT AVBL DUE INSUFFICIENT DATA
RMK NXT FCST BY 251300Z=
Your time UTC time
Weather data provided by Environment Canada and NAV CANADA